KBJI/BJI METAR and TAF weather

Enter ICAO airport designator
Station Type Date Time Source
KBJI METAR 2020/09/22 00:55 UTC NOAA

KBJI 220055Z AUTO 23004KT 10SM CLR 19/07 A3000 RMK AO2 T01920069


Station Type Date Time Source
KBJI Decoded METAR 2020/09/22 00:55 UTC NOAA

Bemidji, MN, United States (KBJI) 47-30N 094-56W 420M
Sep 21, 2020 - 08:55 PM EDT / 2020.09.22 0055 UTC
Wind: from the SW (230 degrees) at 5 MPH (4 KT):0
Visibility: 10 mile(s):0
Sky conditions: clear
Temperature: 66.6 F (19.2 C)
Dew Point: 44.4 F (6.9 C)
Relative Humidity: 44%
Pressure (altimeter): 30 in. Hg (1015 hPa)
ob: KBJI 220055Z AUTO 23004KT 10SM CLR 19/07 A3000 RMK AO2 T01920069
cycle: 1

Station Type Date Time Source
KBJI TAF 2020/09/21 18:24 UTC NOAA

TAF KBJI 211721Z 2118/2218 25014KT P6SM FEW200
FM212000 26014G22KT P6SM SKC
FM220000 26011KT P6SM SKC
FM220200 VRB03KT P6SM SKC

Example: see airport list